createdAt,value
2023-05-05T04:00:34.633Z,5.62
2023-05-05T04:01:35.597Z,5.62
2023-05-05T04:02:35.639Z,5.62
2023-05-05T04:03:35.642Z,5.62
2023-05-05T04:04:35.599Z,5.62
2023-05-05T04:05:35.571Z,5.62
2023-05-05T04:06:35.563Z,5.62
2023-05-05T04:07:35.547Z,5.62
2023-05-05T04:08:35.525Z,5.62
2023-05-05T04:09:35.531Z,5.62
2023-05-05T04:10:35.500Z,5.62
2023-05-05T04:11:35.488Z,5.62
2023-05-05T04:12:35.536Z,5.62
2023-05-05T04:13:35.499Z,5.62
2023-05-05T04:14:35.464Z,5.62
2023-05-05T04:15:35.477Z,5.62
2023-05-05T04:16:35.441Z,5.62
2023-05-05T04:17:35.456Z,5.62
2023-05-05T04:18:35.417Z,5.62
2023-05-05T04:19:35.397Z,5.62
2023-05-05T04:20:35.406Z,11.25
2023-05-05T04:21:35.386Z,11.25
2023-05-05T04:22:35.400Z,11.25
2023-05-05T04:23:35.408Z,11.25
2023-05-05T04:24:35.347Z,11.25
2023-05-05T04:25:35.336Z,11.25
2023-05-05T04:26:35.335Z,11.25
2023-05-05T04:27:35.353Z,11.25
2023-05-05T04:28:35.318Z,11.25
2023-05-05T04:29:35.316Z,11.25
2023-05-05T04:30:35.317Z,11.25
2023-05-05T04:31:35.282Z,11.25
2023-05-05T04:32:35.324Z,11.25
2023-05-05T04:33:35.256Z,11.25
2023-05-05T04:34:35.244Z,11.25
2023-05-05T04:35:35.263Z,11.25
2023-05-05T04:36:35.230Z,11.25
2023-05-05T04:37:35.199Z,11.25
2023-05-05T04:38:35.289Z,11.25
2023-05-05T04:39:35.187Z,11.25
2023-05-05T04:40:35.179Z,11.25
2023-05-05T04:41:35.162Z,11.25
2023-05-05T04:42:35.160Z,16.88
2023-05-05T04:43:35.145Z,16.88
2023-05-05T04:44:35.157Z,16.88
2023-05-05T04:45:35.112Z,16.88
2023-05-05T04:46:35.172Z,16.88
2023-05-05T04:47:35.115Z,16.88
2023-05-05T04:48:35.112Z,16.88
2023-05-05T04:49:35.081Z,16.88
2023-05-05T04:50:35.083Z,16.88
2023-05-05T04:51:35.049Z,16.88
2023-05-05T04:52:35.053Z,16.88
2023-05-05T04:53:35.038Z,16.88
2023-05-05T04:54:35.018Z,16.88
2023-05-05T04:55:35.001Z,16.88
2023-05-05T04:56:35.035Z,16.88
2023-05-05T04:57:35.005Z,16.88
2023-05-05T04:58:34.989Z,16.88
2023-05-05T04:59:34.961Z,16.88
2023-05-05T05:00:34.960Z,16.88
2023-05-05T05:01:37.783Z,16.88
2023-05-05T05:02:35.003Z,16.88
2023-05-05T05:03:35.002Z,22.50
2023-05-05T05:04:34.915Z,22.50
2023-05-05T05:05:34.908Z,22.50
2023-05-05T05:06:34.880Z,22.50
2023-05-05T05:07:34.876Z,22.50
2023-05-05T05:08:34.876Z,22.50
2023-05-05T05:09:34.858Z,22.50
2023-05-05T05:10:34.850Z,22.50
2023-05-05T05:11:34.849Z,22.50
2023-05-05T05:12:34.888Z,22.50
2023-05-05T05:13:34.810Z,22.50
2023-05-05T05:14:34.793Z,22.50
2023-05-05T05:15:34.794Z,22.50
2023-05-05T05:16:34.812Z,22.50
2023-05-05T05:17:34.798Z,22.50
2023-05-05T05:18:34.789Z,22.50
2023-05-05T05:19:34.739Z,28.12
2023-05-05T05:20:34.741Z,28.12
2023-05-05T05:21:34.719Z,28.12
2023-05-05T05:22:34.716Z,28.12
2023-05-05T05:23:34.696Z,28.12
2023-05-05T05:24:34.731Z,28.12
2023-05-05T05:25:34.716Z,28.12
2023-05-05T05:26:34.681Z,28.12
2023-05-05T05:27:34.663Z,28.12
2023-05-05T05:28:34.656Z,28.12
2023-05-05T05:29:34.646Z,28.12
2023-05-05T05:30:34.643Z,28.12
2023-05-05T05:31:34.664Z,28.12
2023-05-05T05:32:34.620Z,28.12
2023-05-05T05:33:34.599Z,28.12
2023-05-05T05:34:34.584Z,28.12
2023-05-05T05:35:34.590Z,28.12
2023-05-05T05:36:34.553Z,28.12
2023-05-05T05:37:34.551Z,28.12
2023-05-05T05:38:34.560Z,28.12
2023-05-05T05:39:34.527Z,28.12
2023-05-05T05:40:34.574Z,28.12
2023-05-05T05:41:34.510Z,33.75
2023-05-05T05:42:34.491Z,33.75
2023-05-05T05:43:34.496Z,33.75
2023-05-05T05:44:34.483Z,33.75
2023-05-05T05:45:34.452Z,33.75
2023-05-05T05:46:34.525Z,28.12
2023-05-05T05:47:34.473Z,28.12
2023-05-05T05:48:34.425Z,33.75
2023-05-05T05:49:34.409Z,33.75
2023-05-05T05:50:34.397Z,33.75
2023-05-05T05:51:34.389Z,33.75
2023-05-05T05:52:34.377Z,33.75
2023-05-05T05:53:34.396Z,33.75
2023-05-05T05:54:34.393Z,33.75
2023-05-05T05:55:34.352Z,39.38
2023-05-05T05:56:34.361Z,39.38
2023-05-05T05:57:34.353Z,39.38
2023-05-05T05:58:34.307Z,39.38
2023-05-05T05:59:34.302Z,39.38
2023-05-05T06:00:34.344Z,45.00
2023-05-05T06:01:34.284Z,45.00
2023-05-05T06:02:34.373Z,45.00
2023-05-05T06:03:34.428Z,45.00
2023-05-05T06:04:34.335Z,45.00
2023-05-05T06:05:34.241Z,45.00
2023-05-05T06:06:34.253Z,45.00
2023-05-05T06:07:35.560Z,45.00
2023-05-05T06:08:34.465Z,45.00
2023-05-05T06:09:34.227Z,45.00
2023-05-05T06:10:34.539Z,39.38
2023-05-05T06:11:34.202Z,45.00
2023-05-05T06:12:34.184Z,45.00
2023-05-05T06:13:34.135Z,45.00
2023-05-05T06:14:34.141Z,45.00
2023-05-05T06:15:34.113Z,45.00
2023-05-05T06:16:34.211Z,45.00
2023-05-05T06:17:34.105Z,50.62
2023-05-05T06:18:34.101Z,50.62
2023-05-05T06:19:34.080Z,50.62
2023-05-05T06:20:34.086Z,56.25
2023-05-05T06:21:34.044Z,56.25
2023-05-05T06:22:34.048Z,61.88
2023-05-05T06:23:34.049Z,56.25
2023-05-05T06:24:34.178Z,56.25
2023-05-05T06:25:34.016Z,56.25
2023-05-05T06:26:33.998Z,56.25
2023-05-05T06:27:34.013Z,50.62
2023-05-05T06:28:33.983Z,50.62
2023-05-05T06:29:33.971Z,50.62
2023-05-05T06:30:33.960Z,56.25
2023-05-05T06:31:33.998Z,61.88
2023-05-05T06:32:34.013Z,56.25
2023-05-05T06:33:33.928Z,56.25
2023-05-05T06:34:33.923Z,50.62
2023-05-05T06:35:33.909Z,50.62
2023-05-05T06:36:33.898Z,56.25
2023-05-05T06:37:33.894Z,50.62
2023-05-05T06:38:33.856Z,56.25
2023-05-05T06:39:33.856Z,50.62
2023-05-05T06:40:33.840Z,50.62
2023-05-05T06:41:33.834Z,56.25
2023-05-05T06:42:33.828Z,56.25
2023-05-05T06:43:33.818Z,56.25
2023-05-05T06:44:33.797Z,56.25
2023-05-05T06:45:33.804Z,56.25
2023-05-05T06:46:33.861Z,56.25
2023-05-05T06:47:33.801Z,61.88
2023-05-05T06:48:33.816Z,61.88
2023-05-05T06:49:33.832Z,61.88
2023-05-05T06:50:33.732Z,61.88
2023-05-05T06:51:33.726Z,67.50
2023-05-05T06:52:33.703Z,67.50
2023-05-05T06:53:33.738Z,61.88
2023-05-05T06:54:33.742Z,61.88
2023-05-05T06:55:33.672Z,56.25
2023-05-05T06:56:33.684Z,56.25
2023-05-05T06:57:33.670Z,50.62
2023-05-05T06:58:33.647Z,56.25
2023-05-05T06:59:33.637Z,50.62
2023-05-05T07:00:33.686Z,56.25
2023-05-05T07:01:33.654Z,45.00
2023-05-05T07:02:33.723Z,45.00
2023-05-05T07:03:33.689Z,45.00
2023-05-05T07:04:33.585Z,45.00
2023-05-05T07:05:33.556Z,39.38
2023-05-05T07:06:33.568Z,45.00
2023-05-05T07:07:33.566Z,45.00
2023-05-05T07:08:33.533Z,50.62
2023-05-05T07:09:33.541Z,50.62
2023-05-05T07:10:33.518Z,50.62
2023-05-05T07:11:33.607Z,50.62
2023-05-05T07:12:33.582Z,56.25
2023-05-05T07:13:33.524Z,56.25
2023-05-05T07:14:33.487Z,50.62
2023-05-05T07:15:33.508Z,56.25
2023-05-05T07:16:33.519Z,50.62
2023-05-05T07:17:33.562Z,56.25
2023-05-05T07:18:33.431Z,56.25
2023-05-05T07:19:33.634Z,50.62
2023-05-05T07:20:33.431Z,56.25
2023-05-05T07:21:33.399Z,50.62
2023-05-05T07:22:33.395Z,61.88
2023-05-05T07:23:33.388Z,61.88
2023-05-05T07:24:33.362Z,61.88
2023-05-05T07:25:33.355Z,67.50
2023-05-05T07:26:33.350Z,67.50
2023-05-05T07:27:33.359Z,73.12
2023-05-05T07:28:33.328Z,73.12
2023-05-05T07:29:33.300Z,73.12
2023-05-05T07:30:33.315Z,73.12
2023-05-05T07:31:33.298Z,73.12
2023-05-05T07:32:33.315Z,73.12
2023-05-05T07:33:33.258Z,73.12
2023-05-05T07:34:33.263Z,78.75
2023-05-05T07:35:33.249Z,73.12
2023-05-05T07:36:33.247Z,73.12
2023-05-05T07:37:33.230Z,78.75
2023-05-05T07:38:33.202Z,78.75
2023-05-05T07:39:33.198Z,78.75
2023-05-05T07:40:33.198Z,78.75
2023-05-05T07:41:33.184Z,78.75
2023-05-05T07:42:33.160Z,78.75
2023-05-05T07:43:33.145Z,78.75
2023-05-05T07:44:33.144Z,78.75
2023-05-05T07:45:33.144Z,78.75
2023-05-05T07:46:33.169Z,78.75
2023-05-05T07:47:33.110Z,78.75
2023-05-05T07:48:33.148Z,78.75
2023-05-05T07:49:33.093Z,73.12
2023-05-05T07:50:33.077Z,78.75
2023-05-05T07:51:34.599Z,78.75
2023-05-05T07:52:45.193Z,78.75
2023-05-05T07:53:33.043Z,84.38
2023-05-05T07:54:33.025Z,84.38
2023-05-05T07:55:33.012Z,84.38
2023-05-05T07:56:33.016Z,84.38
2023-05-05T07:57:32.977Z,84.38
2023-05-05T07:58:32.993Z,84.38
2023-05-05T07:59:32.961Z,84.38
2023-05-05T08:00:32.980Z,84.38
2023-05-05T08:01:32.948Z,84.38
2023-05-05T08:02:33.030Z,84.38
2023-05-05T08:03:33.076Z,90.00
2023-05-05T08:04:32.938Z,90.00
2023-05-05T08:05:32.896Z,90.00
2023-05-05T08:06:32.888Z,90.00
2023-05-05T08:07:32.882Z,90.00
2023-05-05T08:08:32.883Z,90.00
2023-05-05T08:09:32.855Z,90.00
2023-05-05T08:10:32.875Z,90.00
2023-05-05T08:11:32.845Z,90.00
2023-05-05T08:12:32.847Z,90.00
2023-05-05T08:13:32.839Z,84.38
2023-05-05T08:14:32.808Z,90.00
2023-05-05T08:15:32.799Z,90.00
2023-05-05T08:16:32.900Z,90.00
2023-05-05T08:17:32.794Z,90.00
2023-05-05T08:18:32.764Z,95.62
2023-05-05T08:19:32.764Z,90.00
2023-05-05T08:20:32.731Z,95.62
2023-05-05T08:21:32.727Z,95.62
2023-05-05T08:22:32.746Z,95.62
2023-05-05T08:23:32.723Z,95.62
2023-05-05T08:24:32.714Z,95.62
2023-05-05T08:25:32.688Z,95.62
2023-05-05T08:26:32.678Z,95.62
2023-05-05T08:27:32.672Z,95.62
2023-05-05T08:28:32.668Z,95.62
2023-05-05T08:29:32.700Z,95.62
2023-05-05T08:30:32.622Z,95.62
2023-05-05T08:31:32.663Z,95.62
2023-05-05T08:32:32.625Z,95.62
2023-05-05T08:33:32.599Z,95.62
2023-05-05T08:34:32.611Z,101.25
2023-05-05T08:35:32.641Z,101.25
2023-05-05T08:36:32.561Z,101.25
2023-05-05T08:37:32.551Z,101.25
2023-05-05T08:38:32.531Z,101.25
2023-05-05T08:39:32.572Z,101.25
2023-05-05T08:40:32.601Z,101.25
2023-05-05T08:41:32.549Z,101.25
2023-05-05T08:42:36.981Z,101.25
2023-05-05T08:43:32.495Z,101.25
2023-05-05T08:44:32.513Z,95.62
2023-05-05T08:45:32.453Z,95.62
2023-05-05T08:46:32.540Z,101.25
2023-05-05T08:47:32.499Z,101.25
2023-05-05T08:48:32.442Z,101.25
2023-05-05T08:49:32.416Z,106.88
2023-05-05T08:50:32.424Z,106.88
2023-05-05T08:51:32.396Z,106.88
2023-05-05T08:52:32.441Z,106.88
2023-05-05T08:53:32.390Z,106.88
2023-05-05T08:54:33.229Z,106.88
2023-05-05T08:55:32.360Z,106.88
2023-05-05T08:56:32.337Z,106.88
2023-05-05T08:57:32.339Z,101.25
2023-05-05T08:58:32.305Z,106.88
2023-05-05T08:59:32.315Z,106.88
2023-05-05T09:00:32.322Z,106.88
2023-05-05T09:01:32.375Z,106.88
2023-05-05T09:02:32.351Z,112.50
2023-05-05T09:03:32.340Z,112.50
2023-05-05T09:04:32.273Z,112.50
2023-05-05T09:05:32.303Z,118.12
2023-05-05T09:06:32.229Z,118.12
2023-05-05T09:07:32.215Z,118.12
2023-05-05T09:08:32.204Z,118.12
2023-05-05T09:09:32.226Z,106.88
2023-05-05T09:10:32.220Z,123.75
2023-05-05T09:11:32.274Z,123.75
2023-05-05T09:12:32.191Z,123.75
2023-05-05T09:13:32.161Z,123.75
2023-05-05T09:14:32.751Z,123.75
2023-05-05T09:15:32.133Z,123.75
2023-05-05T09:16:32.182Z,123.75
2023-05-05T09:17:32.136Z,123.75
2023-05-05T09:18:32.095Z,123.75
2023-05-05T09:19:32.149Z,123.75
2023-05-05T09:20:32.072Z,123.75
2023-05-05T09:21:32.087Z,118.12
2023-05-05T09:22:32.061Z,118.12
2023-05-05T09:23:32.053Z,118.12
2023-05-05T09:24:32.033Z,118.12
2023-05-05T09:25:32.024Z,112.50
2023-05-05T09:26:32.053Z,123.75
2023-05-05T09:27:32.002Z,129.38
2023-05-05T09:28:31.991Z,135.00
2023-05-05T09:29:31.986Z,135.00
2023-05-05T09:30:31.968Z,135.00
2023-05-05T09:31:32.015Z,135.00
2023-05-05T09:32:31.973Z,135.00
2023-05-05T09:33:31.961Z,135.00
2023-05-05T09:34:31.948Z,112.50
2023-05-05T09:35:31.916Z,106.88
2023-05-05T09:36:31.938Z,95.62
2023-05-05T09:37:31.919Z,90.00
2023-05-05T09:38:31.879Z,90.00
2023-05-05T09:39:31.873Z,112.50
2023-05-05T09:40:31.866Z,112.50
2023-05-05T09:41:52.895Z,118.12
2023-05-05T09:42:31.852Z,106.88
2023-05-05T09:43:31.835Z,101.25
2023-05-05T09:44:31.826Z,112.50
2023-05-05T09:45:31.821Z,118.12
2023-05-05T09:46:31.838Z,135.00
2023-05-05T09:47:32.927Z,129.38
2023-05-05T09:48:31.811Z,135.00
2023-05-05T09:49:31.813Z,135.00
2023-05-05T09:50:32.781Z,135.00
2023-05-05T09:51:31.763Z,140.62
2023-05-05T09:52:31.718Z,140.62
2023-05-05T09:53:31.714Z,146.25
2023-05-05T09:54:31.698Z,151.88
2023-05-05T09:55:31.795Z,157.50
2023-05-05T09:56:31.686Z,163.12
2023-05-05T09:57:31.674Z,163.12
2023-05-05T09:58:31.741Z,123.75
2023-05-05T09:59:31.700Z,106.88
2023-05-05T10:00:31.628Z,163.12
2023-05-05T10:01:31.650Z,163.12
2023-05-05T10:02:31.671Z,135.00
2023-05-05T10:03:31.595Z,129.38
2023-05-05T10:04:31.637Z,151.88
2023-05-05T10:05:31.586Z,140.62
2023-05-05T10:06:31.573Z,163.12
2023-05-05T10:07:31.570Z,168.75
2023-05-05T10:08:31.602Z,168.75
2023-05-05T10:09:31.514Z,174.38
2023-05-05T10:10:31.509Z,168.75
2023-05-05T10:11:31.507Z,129.38
2023-05-05T10:12:31.545Z,123.75
2023-05-05T10:13:31.569Z,140.62
2023-05-05T10:14:31.494Z,196.88
2023-05-05T10:15:31.462Z,123.75
2023-05-05T10:16:31.531Z,123.75
2023-05-05T10:17:31.550Z,135.00
2023-05-05T10:18:31.474Z,151.88
2023-05-05T10:19:31.419Z,151.88
2023-05-05T10:20:31.671Z,123.75
2023-05-05T10:21:31.426Z,140.62
2023-05-05T10:22:31.390Z,129.38
2023-05-05T10:23:31.387Z,140.62
2023-05-05T10:24:31.361Z,146.25
2023-05-05T10:25:31.360Z,146.25
2023-05-05T10:26:31.352Z,163.12
2023-05-05T10:27:31.347Z,151.88
2023-05-05T10:28:31.326Z,135.00
2023-05-05T10:29:31.297Z,146.25
2023-05-05T10:30:31.301Z,123.75
2023-05-05T10:31:31.345Z,129.38
2023-05-05T10:33:32.333Z,151.88
2023-05-05T10:34:31.283Z,157.50
2023-05-05T10:35:31.243Z,163.12
2023-05-05T10:36:31.233Z,168.75
2023-05-05T10:37:31.220Z,174.38
2023-05-05T10:38:31.296Z,174.38
2023-05-05T10:39:31.212Z,168.75
2023-05-05T10:40:31.187Z,174.38
2023-05-05T10:41:31.173Z,174.38
2023-05-05T10:42:31.188Z,174.38
2023-05-05T10:43:31.155Z,180.00
2023-05-05T10:44:31.176Z,174.38
2023-05-05T10:45:35.411Z,174.38
2023-05-05T10:46:31.191Z,180.00
2023-05-05T10:47:31.116Z,174.38
2023-05-05T10:48:31.116Z,174.38
2023-05-05T10:49:31.118Z,174.38
2023-05-05T10:50:31.079Z,174.38
2023-05-05T10:51:39.878Z,174.38
2023-05-05T10:52:31.226Z,174.38
2023-05-05T10:53:31.051Z,174.38
2023-05-05T10:54:31.084Z,174.38
2023-05-05T10:55:31.029Z,180.00
2023-05-05T10:56:31.022Z,180.00
2023-05-05T10:57:31.016Z,180.00
2023-05-05T10:58:30.995Z,180.00
2023-05-05T10:59:30.999Z,180.00
2023-05-05T11:00:30.963Z,180.00
2023-05-05T11:01:30.992Z,180.00
2023-05-05T11:02:30.993Z,180.00
2023-05-05T11:03:30.982Z,180.00
2023-05-05T11:04:30.954Z,180.00
2023-05-05T11:05:30.922Z,185.62
2023-05-05T11:06:30.905Z,185.62
2023-05-05T11:07:30.889Z,185.62
2023-05-05T11:08:30.898Z,191.25
2023-05-05T11:09:30.895Z,191.25
2023-05-05T11:10:30.876Z,191.25
2023-05-05T11:11:30.844Z,196.88
2023-05-05T11:12:30.880Z,202.50
2023-05-05T11:13:30.824Z,202.50
2023-05-05T11:14:30.828Z,208.12
2023-05-05T11:15:30.826Z,202.50
2023-05-05T11:16:30.838Z,202.50
2023-05-05T11:17:30.817Z,202.50
2023-05-05T11:18:30.777Z,123.75
2023-05-05T11:19:30.773Z,174.38
2023-05-05T11:20:30.753Z,168.75
2023-05-05T11:21:30.749Z,174.38
2023-05-05T11:22:30.726Z,174.38
2023-05-05T11:23:30.715Z,185.62
2023-05-05T11:24:30.711Z,180.00
2023-05-05T11:25:30.688Z,191.25
2023-05-05T11:26:30.703Z,174.38
2023-05-05T11:27:30.669Z,180.00
2023-05-05T11:28:30.652Z,180.00
2023-05-05T11:29:30.645Z,174.38
2023-05-05T11:30:30.657Z,174.38
2023-05-05T11:31:30.687Z,163.12
2023-05-05T11:32:30.654Z,157.50
2023-05-05T11:33:30.659Z,151.88
2023-05-05T11:34:30.591Z,151.88
2023-05-05T11:35:30.593Z,135.00
2023-05-05T11:36:30.572Z,146.25
2023-05-05T11:37:30.567Z,151.88
2023-05-05T11:38:30.584Z,151.88
2023-05-05T11:39:30.527Z,146.25
2023-05-05T11:40:30.548Z,146.25
2023-05-05T11:41:30.524Z,140.62
2023-05-05T11:42:30.575Z,140.62
2023-05-05T11:43:30.489Z,135.00
2023-05-05T11:44:30.470Z,135.00
2023-05-05T11:45:30.470Z,151.88
2023-05-05T11:46:30.517Z,163.12
2023-05-05T11:47:30.536Z,157.50
2023-05-05T11:48:30.451Z,151.88
2023-05-05T11:49:30.425Z,151.88
2023-05-05T11:50:30.432Z,168.75
2023-05-05T11:51:30.403Z,185.62
2023-05-05T11:52:30.410Z,191.25
2023-05-05T11:53:30.380Z,191.25
2023-05-05T11:54:30.394Z,196.88
2023-05-05T11:55:30.344Z,185.62
2023-05-05T11:56:30.349Z,163.12
2023-05-05T11:57:30.347Z,219.38
2023-05-05T11:58:30.337Z,241.88
2023-05-05T11:59:30.307Z,219.38
2023-05-05T12:00:30.317Z,202.50
2023-05-05T12:01:30.308Z,208.12
2023-05-05T12:02:30.435Z,202.50
2023-05-05T12:03:30.362Z,219.38
2023-05-05T12:04:30.282Z,213.75
2023-05-05T12:05:30.244Z,202.50
2023-05-05T12:06:30.226Z,196.88
2023-05-05T12:07:30.231Z,286.88
2023-05-05T12:08:30.214Z,292.50
2023-05-05T12:09:30.214Z,292.50
2023-05-05T12:10:30.189Z,281.25
2023-05-05T12:11:30.183Z,298.12
2023-05-05T12:12:30.183Z,275.62
2023-05-05T12:13:30.164Z,264.38
2023-05-05T12:14:30.146Z,286.88
2023-05-05T12:15:30.134Z,264.38
2023-05-05T12:16:30.149Z,292.50
2023-05-05T12:17:30.142Z,298.12
2023-05-05T12:18:30.100Z,298.12
2023-05-05T12:19:30.087Z,264.38
2023-05-05T12:20:30.088Z,258.75
2023-05-05T12:21:30.100Z,258.75
2023-05-05T12:22:30.059Z,270.00
2023-05-05T12:23:30.056Z,286.88
2023-05-05T12:24:30.031Z,270.00
2023-05-05T12:25:30.045Z,275.62
2023-05-05T12:26:30.023Z,286.88
2023-05-05T12:27:30.001Z,286.88
2023-05-05T12:28:30.022Z,292.50
2023-05-05T12:29:29.985Z,303.75
2023-05-05T12:30:30.068Z,320.62
2023-05-05T12:31:30.095Z,326.25
2023-05-05T12:32:29.960Z,315.00
2023-05-05T12:33:29.950Z,320.62
2023-05-05T12:34:29.929Z,309.38
2023-05-05T12:35:29.960Z,315.00
2023-05-05T12:36:30.658Z,343.12
2023-05-05T12:37:29.916Z,348.75
2023-05-05T12:38:29.879Z,365.62
2023-05-05T12:39:29.887Z,343.12
2023-05-05T12:40:29.865Z,320.62
2023-05-05T12:41:29.865Z,371.25
2023-05-05T12:42:29.886Z,371.25
2023-05-05T12:43:29.880Z,382.50
2023-05-05T12:44:29.834Z,382.50
2023-05-05T12:45:29.841Z,376.88
2023-05-05T12:46:29.866Z,393.75
2023-05-05T12:47:29.829Z,382.50
2023-05-05T12:48:29.816Z,382.50
2023-05-05T12:49:29.766Z,371.25
2023-05-05T12:50:29.767Z,343.12
2023-05-05T12:51:29.775Z,343.12
2023-05-05T12:52:29.783Z,343.12
2023-05-05T12:53:29.732Z,303.75
2023-05-05T12:54:29.725Z,343.12
2023-05-05T12:55:29.707Z,360.00
2023-05-05T12:56:29.697Z,343.12
2023-05-05T12:57:29.706Z,371.25
2023-05-05T12:58:29.707Z,421.88
2023-05-05T12:59:29.678Z,410.62
2023-05-05T13:00:29.658Z,416.25
2023-05-05T13:01:29.672Z,416.25
2023-05-05T13:02:29.656Z,438.75
2023-05-05T13:03:29.683Z,450.00
2023-05-05T13:04:29.624Z,472.50
2023-05-05T13:05:29.611Z,461.25
2023-05-05T13:06:29.579Z,466.88
2023-05-05T13:07:29.582Z,489.38
2023-05-05T13:08:29.579Z,478.12
2023-05-05T13:09:29.559Z,466.88
2023-05-05T13:10:29.547Z,483.75
2023-05-05T13:11:29.535Z,511.88
2023-05-05T13:12:29.532Z,489.38
2023-05-05T13:13:29.525Z,489.38
2023-05-05T13:14:29.496Z,489.38
2023-05-05T13:15:29.539Z,500.62
2023-05-05T13:16:29.483Z,517.50
2023-05-05T13:17:34.761Z,534.38
2023-05-05T13:18:29.471Z,534.38
2023-05-05T13:19:29.447Z,551.25
2023-05-05T13:20:29.439Z,545.62
2023-05-05T13:21:29.441Z,523.12
2023-05-05T13:22:29.421Z,551.25
2023-05-05T13:23:29.446Z,545.62
2023-05-05T13:24:42.337Z,556.88
2023-05-05T13:25:29.403Z,579.38
2023-05-05T13:26:29.408Z,556.88
2023-05-05T13:27:29.397Z,545.62
2023-05-05T13:28:29.369Z,534.38
2023-05-05T13:29:31.428Z,551.25
2023-05-05T13:30:29.342Z,562.50
2023-05-05T13:31:29.389Z,562.50
2023-05-05T13:32:29.344Z,579.38
2023-05-05T13:33:29.385Z,607.50
2023-05-05T13:34:29.365Z,590.62
2023-05-05T13:35:29.286Z,568.12
2023-05-05T13:36:29.311Z,607.50
2023-05-05T13:37:29.277Z,624.38
2023-05-05T13:38:29.291Z,641.25
2023-05-05T13:39:29.255Z,635.62
2023-05-05T13:40:29.350Z,596.25
2023-05-05T13:41:29.235Z,596.25
2023-05-05T13:42:29.215Z,618.75
2023-05-05T13:43:29.222Z,680.62
2023-05-05T13:44:29.226Z,646.88
2023-05-05T13:45:29.198Z,635.62
2023-05-05T13:46:29.232Z,646.88
2023-05-05T13:47:29.240Z,646.88
2023-05-05T13:48:29.165Z,646.88
2023-05-05T13:49:29.161Z,646.88
2023-05-05T13:50:29.133Z,472.50
2023-05-05T13:51:29.168Z,652.50
2023-05-05T13:52:31.696Z,630.00
2023-05-05T13:53:29.150Z,337.50
2023-05-05T13:54:29.101Z,444.38
2023-05-05T13:55:29.108Z,427.50
2023-05-05T13:56:29.079Z,241.88
2023-05-05T13:57:29.069Z,376.88
2023-05-05T13:58:29.078Z,438.75
2023-05-05T13:59:29.058Z,630.00
2023-05-05T14:00:29.048Z,607.50
2023-05-05T14:01:29.176Z,388.12
2023-05-05T14:02:29.070Z,613.12
2023-05-05T14:03:29.028Z,658.12
2023-05-05T14:04:29.124Z,624.38
2023-05-05T14:05:29.017Z,613.12
2023-05-05T14:06:28.973Z,585.00
2023-05-05T14:07:28.971Z,652.50
2023-05-05T14:08:28.979Z,663.75
2023-05-05T14:09:29.077Z,663.75
2023-05-05T14:10:28.945Z,658.12
2023-05-05T14:11:28.934Z,641.25
2023-05-05T14:12:29.018Z,652.50
2023-05-05T14:13:28.947Z,630.00
2023-05-05T14:14:28.929Z,585.00
2023-05-05T14:15:28.982Z,596.25
2023-05-05T14:16:28.895Z,618.75
2023-05-05T14:17:28.912Z,534.38
2023-05-05T14:18:28.943Z,590.62
2023-05-05T14:19:28.887Z,489.38
2023-05-05T14:20:28.855Z,466.88
2023-05-05T14:21:28.848Z,517.50
2023-05-05T14:22:28.823Z,528.75
2023-05-05T14:23:28.861Z,551.25
2023-05-05T14:24:28.864Z,613.12
2023-05-05T14:25:28.820Z,624.38
2023-05-05T14:26:28.793Z,590.62
2023-05-05T14:27:28.773Z,568.12
2023-05-05T14:28:28.780Z,590.62
2023-05-05T14:29:28.811Z,556.88
2023-05-05T14:30:28.762Z,556.88
2023-05-05T14:31:28.804Z,551.25
2023-05-05T14:32:28.751Z,556.88
2023-05-05T14:33:28.714Z,556.88
2023-05-05T14:34:28.757Z,371.25
2023-05-05T14:35:28.738Z,528.75
2023-05-05T14:36:28.681Z,416.25
2023-05-05T14:37:28.692Z,472.50
2023-05-05T14:38:28.757Z,461.25
2023-05-05T14:39:28.657Z,416.25
2023-05-05T14:40:28.689Z,444.38
2023-05-05T14:41:28.632Z,472.50
2023-05-05T14:42:28.622Z,472.50
2023-05-05T14:43:28.631Z,393.75
2023-05-05T14:44:28.601Z,168.75
2023-05-05T14:45:28.604Z,298.12
2023-05-05T14:46:28.642Z,298.12
2023-05-05T14:47:28.571Z,320.62
2023-05-05T14:48:28.561Z,286.88
2023-05-05T14:49:28.550Z,196.88
2023-05-05T14:50:28.560Z,236.25
2023-05-05T14:51:28.529Z,236.25
2023-05-05T14:52:28.574Z,247.50
2023-05-05T14:53:28.562Z,230.62
2023-05-05T14:54:29.104Z,275.62
2023-05-05T14:55:28.501Z,331.88
2023-05-05T14:56:28.492Z,230.62
2023-05-05T14:57:28.459Z,185.62
2023-05-05T14:58:28.474Z,174.38
2023-05-05T14:59:28.447Z,230.62
2023-05-05T15:00:28.455Z,303.75
2023-05-05T15:01:28.468Z,241.88
2023-05-05T15:02:28.472Z,208.12
2023-05-05T15:03:28.728Z,264.38
2023-05-05T15:04:28.397Z,286.88
2023-05-05T15:05:28.389Z,303.75
2023-05-05T15:06:28.368Z,309.38
2023-05-05T15:07:28.363Z,292.50
2023-05-05T15:08:28.343Z,393.75
2023-05-05T15:09:28.376Z,388.12
2023-05-05T15:10:28.343Z,326.25
2023-05-05T15:11:28.308Z,343.12
2023-05-05T15:12:28.322Z,331.88
2023-05-05T15:13:28.301Z,286.88
2023-05-05T15:14:28.350Z,253.12
2023-05-05T15:15:28.282Z,309.38
2023-05-05T15:16:28.350Z,343.12
2023-05-05T15:17:28.272Z,337.50
2023-05-05T15:18:28.243Z,258.75
2023-05-05T15:19:28.232Z,241.88
2023-05-05T15:20:28.225Z,281.25
2023-05-05T15:21:28.216Z,258.75
2023-05-05T15:22:28.203Z,275.62
2023-05-05T15:23:28.185Z,281.25
2023-05-05T15:24:28.278Z,241.88
2023-05-05T15:25:28.180Z,225.00
2023-05-05T15:26:28.184Z,241.88
2023-05-05T15:27:28.156Z,258.75
2023-05-05T15:28:28.158Z,230.62
2023-05-05T15:29:28.126Z,225.00
2023-05-05T15:30:28.108Z,247.50
2023-05-05T15:31:28.149Z,247.50
2023-05-05T15:32:28.105Z,264.38
2023-05-05T15:33:28.070Z,286.88
2023-05-05T15:34:28.126Z,298.12
2023-05-05T15:35:28.053Z,286.88
2023-05-05T15:36:28.054Z,298.12
2023-05-05T15:37:28.036Z,286.88
2023-05-05T15:38:28.018Z,208.12
2023-05-05T15:39:28.024Z,320.62
2023-05-05T15:40:27.991Z,461.25
2023-05-05T15:41:28.011Z,517.50
2023-05-05T15:42:27.970Z,506.25
2023-05-05T15:43:28.005Z,489.38
2023-05-05T15:44:27.961Z,461.25
2023-05-05T15:45:27.989Z,511.88
2023-05-05T15:46:27.963Z,298.12
2023-05-05T15:47:27.975Z,168.75
2023-05-05T15:48:27.918Z,118.12
2023-05-05T15:49:27.918Z,95.62
2023-05-05T15:50:27.929Z,90.00
2023-05-05T15:51:27.931Z,84.38
2023-05-05T15:52:27.864Z,78.75
2023-05-05T15:53:27.876Z,78.75
2023-05-05T15:54:27.851Z,73.12
2023-05-05T15:55:27.858Z,67.50
2023-05-05T15:56:27.886Z,67.50
2023-05-05T15:57:27.833Z,67.50
2023-05-05T15:58:27.872Z,67.50
2023-05-05T15:59:27.815Z,67.50
2023-05-05T16:00:27.785Z,67.50
2023-05-05T16:01:27.803Z,67.50
2023-05-05T16:02:27.862Z,67.50
2023-05-05T16:03:27.962Z,61.88
2023-05-05T16:04:27.776Z,61.88
2023-05-05T16:05:27.730Z,61.88
2023-05-05T16:06:27.724Z,67.50
2023-05-05T16:07:27.760Z,67.50
2023-05-05T16:08:27.691Z,67.50
2023-05-05T16:09:27.678Z,106.88
2023-05-05T16:10:27.687Z,84.38
2023-05-05T16:11:27.689Z,61.88
2023-05-05T16:12:27.678Z,61.88
2023-05-05T16:13:27.698Z,61.88
2023-05-05T16:14:27.618Z,56.25
2023-05-05T16:15:27.611Z,56.25
2023-05-05T16:16:27.643Z,56.25
2023-05-05T16:17:27.627Z,50.62
2023-05-05T16:18:27.579Z,50.62
2023-05-05T16:19:28.489Z,45.00
2023-05-05T16:20:27.557Z,45.00
2023-05-05T16:21:27.567Z,39.38
2023-05-05T16:22:27.553Z,39.38
2023-05-05T16:23:27.547Z,39.38
2023-05-05T16:24:27.522Z,39.38
2023-05-05T16:25:27.742Z,33.75
2023-05-05T16:26:27.506Z,33.75
2023-05-05T16:27:27.635Z,33.75
2023-05-05T16:28:27.472Z,33.75
2023-05-05T16:29:27.462Z,33.75
2023-05-05T16:30:27.453Z,33.75
2023-05-05T16:31:27.450Z,28.12
2023-05-05T16:32:27.490Z,28.12
2023-05-05T16:33:27.434Z,28.12
2023-05-05T16:34:27.404Z,22.50
2023-05-05T16:35:27.404Z,22.50
2023-05-05T16:36:27.394Z,22.50
2023-05-05T16:37:27.432Z,22.50
2023-05-05T16:38:27.714Z,16.88
2023-05-05T16:39:27.357Z,16.88
2023-05-05T16:40:27.328Z,16.88